createdAt,value
2022-12-18T00:01:34.175Z,66.53
2022-12-18T00:04:06.605Z,72.45
2022-12-18T00:09:04.103Z,60.00
2022-12-18T00:11:31.968Z,58.78
2022-12-18T00:14:00.098Z,57.30
2022-12-18T00:16:28.569Z,56.63
2022-12-18T00:18:57.408Z,57.53
2022-12-18T00:21:24.279Z,63.75
2022-12-18T00:23:51.792Z,58.55
2022-12-18T00:26:24.692Z,72.68
2022-12-18T00:28:52.665Z,59.78
2022-12-18T00:31:24.613Z,66.75
2022-12-18T00:33:54.055Z,63.97
2022-12-18T00:36:25.444Z,72.93
2022-12-18T00:38:54.006Z,70.80
2022-12-18T00:41:39.651Z,71.07
2022-12-18T00:44:08.261Z,72.32
2022-12-18T00:46:35.081Z,70.68
2022-12-18T00:49:02.173Z,72.07
2022-12-18T00:51:29.017Z,70.10
2022-12-18T00:53:56.024Z,66.82
2022-12-18T00:56:23.606Z,63.40
2022-12-18T00:58:50.655Z,62.83
2022-12-18T01:01:18.021Z,64.07
2022-12-18T01:03:46.230Z,62.70
2022-12-18T01:06:14.912Z,65.53
2022-12-18T01:08:41.763Z,63.40
2022-12-18T01:11:14.560Z,66.45
2022-12-18T01:13:42.585Z,58.42
2022-12-18T01:16:12.124Z,65.40
2022-12-18T01:18:38.990Z,70.85
2022-12-18T01:21:14.513Z,63.95
2022-12-18T01:23:41.711Z,66.30
2022-12-18T01:26:12.505Z,62.60
2022-12-18T01:28:39.695Z,64.45
2022-12-18T01:31:22.839Z,66.35
2022-12-18T01:33:50.839Z,63.87
2022-12-18T01:36:28.429Z,63.78
2022-12-18T01:38:56.626Z,61.45
2022-12-18T01:41:26.440Z,75.35
2022-12-18T01:43:55.352Z,66.55
2022-12-18T01:46:27.583Z,69.78
2022-12-18T01:49:01.418Z,71.25
2022-12-18T01:51:31.837Z,69.32
2022-12-18T01:54:00.106Z,67.88
2022-12-18T01:56:26.940Z,74.20
2022-12-18T01:59:03.300Z,73.13
2022-12-18T02:01:31.872Z,69.38
2022-12-18T02:04:26.311Z,66.28
2022-12-18T02:07:39.501Z,69.15
2022-12-18T02:10:23.151Z,64.18
2022-12-18T02:13:14.665Z,65.72
2022-12-18T02:16:14.000Z,61.13
2022-12-18T02:18:48.674Z,64.45
2022-12-18T02:21:45.671Z,61.17
2022-12-18T02:24:31.179Z,66.63
2022-12-18T02:27:01.868Z,68.30
2022-12-18T02:29:35.359Z,68.35
2022-12-18T02:32:05.468Z,60.00
2022-12-18T02:34:36.121Z,62.95
2022-12-18T02:37:07.245Z,57.05
2022-12-18T02:39:36.225Z,59.45
2022-12-18T02:42:08.661Z,66.45
2022-12-18T02:47:14.419Z,60.13
2022-12-18T02:50:20.174Z,61.97
2022-12-18T02:52:58.905Z,66.35
2022-12-18T02:55:51.129Z,55.65
2022-12-18T02:58:29.801Z,63.92
2022-12-18T03:01:25.795Z,63.63
2022-12-18T03:04:00.509Z,62.47
2022-12-18T03:06:41.669Z,65.95
2022-12-18T03:09:18.658Z,66.35
2022-12-18T03:12:08.197Z,66.85
2022-12-18T03:14:37.503Z,65.32
2022-12-18T03:17:09.921Z,61.55
2022-12-18T03:22:05.665Z,64.15
2022-12-18T03:24:34.245Z,64.28
2022-12-18T03:27:10.101Z,56.47
2022-12-18T03:29:53.107Z,63.85
2022-12-18T03:32:30.164Z,66.10
2022-12-18T03:35:00.555Z,65.72
2022-12-18T03:37:27.452Z,69.50
2022-12-18T03:39:54.250Z,65.03
2022-12-18T03:42:50.887Z,65.72
2022-12-18T03:45:20.436Z,57.45
2022-12-18T03:48:12.028Z,62.53
2022-12-18T03:50:55.984Z,61.60
2022-12-18T03:53:44.171Z,64.43
2022-12-18T03:56:13.131Z,66.57
2022-12-18T03:58:42.682Z,66.07
2022-12-18T04:01:13.529Z,59.53
2022-12-18T04:03:42.000Z,65.88
2022-12-18T04:06:09.822Z,60.28
2022-12-18T04:08:36.806Z,65.28
2022-12-18T04:11:04.214Z,66.22
2022-12-18T04:13:39.529Z,58.00
2022-12-18T04:16:06.758Z,66.93
2022-12-18T04:18:33.531Z,61.55
2022-12-18T04:21:00.298Z,62.13
2022-12-18T04:23:27.137Z,63.50
2022-12-18T04:25:53.879Z,66.57
2022-12-18T04:28:20.965Z,72.65
2022-12-18T04:30:51.480Z,62.30
2022-12-18T04:33:18.460Z,61.05
2022-12-18T04:35:46.596Z,61.33
2022-12-18T04:38:13.864Z,67.28
2022-12-18T04:40:41.684Z,60.92
2022-12-18T04:43:08.630Z,63.75
2022-12-18T04:45:35.712Z,67.82
2022-12-18T04:48:03.381Z,66.43
2022-12-18T04:50:30.612Z,67.65
2022-12-18T04:52:57.371Z,74.03
2022-12-18T04:55:27.485Z,60.30
2022-12-18T04:57:54.533Z,67.32
2022-12-18T05:00:22.251Z,66.63
2022-12-18T05:02:49.181Z,78.43
2022-12-18T05:05:16.028Z,68.55
2022-12-18T05:07:42.776Z,76.05
2022-12-18T05:10:10.368Z,72.13
2022-12-18T05:12:57.179Z,73.05
2022-12-18T05:15:23.996Z,67.28
2022-12-18T05:17:50.736Z,67.85
2022-12-18T05:20:19.116Z,72.63
2022-12-18T05:22:46.046Z,73.53
2022-12-18T05:25:12.816Z,69.20
2022-12-18T05:27:39.569Z,72.68
2022-12-18T05:30:06.844Z,65.72
2022-12-18T05:32:33.565Z,76.88
2022-12-18T05:35:00.324Z,72.00
2022-12-18T05:37:27.061Z,69.20
2022-12-18T05:39:53.801Z,66.18
2022-12-18T05:42:20.569Z,72.82
2022-12-18T05:44:47.254Z,73.32
2022-12-18T05:47:14.055Z,75.70
2022-12-18T05:49:40.794Z,75.05
2022-12-18T05:52:07.530Z,68.10
2022-12-18T05:54:34.389Z,68.55
2022-12-18T05:57:01.128Z,74.45
2022-12-18T05:59:27.835Z,66.88
2022-12-18T06:01:54.617Z,67.18
2022-12-18T06:04:21.431Z,68.40
2022-12-18T06:06:48.151Z,73.35
2022-12-18T06:09:14.957Z,70.57
2022-12-18T06:11:41.739Z,72.70
2022-12-18T06:14:10.648Z,74.55
2022-12-18T06:16:37.466Z,73.95
2022-12-18T06:19:06.167Z,72.30
2022-12-18T06:21:33.399Z,70.53
2022-12-18T06:24:01.070Z,70.03
2022-12-18T06:26:28.492Z,71.95
2022-12-18T06:28:55.638Z,75.35
2022-12-18T06:31:22.433Z,70.45
2022-12-18T06:33:49.295Z,73.60
2022-12-18T06:36:16.900Z,79.50
2022-12-18T06:38:45.021Z,73.80
2022-12-18T06:41:20.126Z,73.75
2022-12-18T06:43:47.062Z,73.93
2022-12-18T06:46:14.271Z,71.88
2022-12-18T06:48:41.195Z,69.30
2022-12-18T06:51:07.954Z,69.55
2022-12-18T06:53:34.820Z,69.03
2022-12-18T06:56:09.264Z,75.28
2022-12-18T06:58:37.192Z,64.93
2022-12-18T07:01:06.561Z,70.80
2022-12-18T07:03:33.324Z,67.82
2022-12-18T07:06:00.209Z,74.22
2022-12-18T07:08:27.205Z,77.07
2022-12-18T07:10:56.429Z,80.22
2022-12-18T07:13:23.795Z,67.35
2022-12-18T07:15:50.743Z,70.85
2022-12-18T07:18:17.495Z,75.68
2022-12-18T07:20:45.151Z,75.82
2022-12-18T07:23:12.747Z,74.13
2022-12-18T07:25:40.419Z,71.78
2022-12-18T07:28:07.175Z,66.38
2022-12-18T07:30:34.382Z,67.75
2022-12-18T07:33:01.251Z,64.40
2022-12-18T07:35:27.948Z,72.93
2022-12-18T07:37:54.709Z,64.78
2022-12-18T07:40:21.491Z,71.85
2022-12-18T07:42:48.236Z,74.43
2022-12-18T07:45:15.061Z,70.18
2022-12-18T07:47:42.278Z,73.82
2022-12-18T07:50:09.340Z,71.50
2022-12-18T07:52:36.113Z,75.97
2022-12-18T07:55:03.184Z,72.85
2022-12-18T08:00:17.302Z,67.63
2022-12-18T08:02:44.157Z,67.80
2022-12-18T08:05:11.060Z,63.20
2022-12-18T08:07:37.822Z,64.22
2022-12-18T08:10:04.870Z,65.05
2022-12-18T08:12:33.064Z,64.05
2022-12-18T08:14:59.846Z,62.72
2022-12-18T08:17:26.610Z,62.80
2022-12-18T08:19:53.302Z,63.97
2022-12-18T08:22:20.137Z,60.58
2022-12-18T08:24:46.857Z,62.83
2022-12-18T08:27:28.854Z,60.03
2022-12-18T08:32:23.230Z,67.30
2022-12-18T08:34:49.928Z,59.90
2022-12-18T08:37:16.695Z,61.22
2022-12-18T08:39:43.372Z,62.08
2022-12-18T08:42:29.972Z,60.25
2022-12-18T08:44:56.723Z,59.00
2022-12-18T08:47:23.582Z,57.30
2022-12-18T08:49:50.403Z,53.85
2022-12-18T08:52:17.154Z,55.40
2022-12-18T08:54:44.002Z,54.75
2022-12-18T08:57:10.734Z,55.95
2022-12-18T08:59:37.435Z,60.78
2022-12-18T09:02:04.316Z,57.63
2022-12-18T09:04:31.276Z,53.08
2022-12-18T09:06:57.993Z,50.75
2022-12-18T09:09:24.770Z,53.28
2022-12-18T09:11:51.538Z,52.75
2022-12-18T09:14:18.265Z,52.45
2022-12-18T09:16:45.088Z,49.25
2022-12-18T09:19:11.917Z,52.00
2022-12-18T09:21:43.351Z,47.33
2022-12-18T09:24:14.731Z,56.03
2022-12-18T09:26:41.553Z,47.28
2022-12-18T09:29:10.369Z,53.85
2022-12-18T09:31:37.680Z,51.17
2022-12-18T09:34:07.680Z,53.13
2022-12-18T09:36:34.524Z,45.13
2022-12-18T09:39:05.129Z,50.65
2022-12-18T09:41:45.544Z,51.38
2022-12-18T09:44:18.134Z,48.63
2022-12-18T09:49:24.729Z,44.85
2022-12-18T09:52:12.446Z,50.35
2022-12-18T09:55:01.308Z,51.90
2022-12-18T09:57:32.010Z,45.80
2022-12-18T10:00:22.435Z,48.72
2022-12-18T10:02:51.914Z,49.67
2022-12-18T10:05:43.065Z,49.70
2022-12-18T10:08:40.147Z,50.83
2022-12-18T10:11:41.329Z,48.47
2022-12-18T10:14:42.459Z,52.28
2022-12-18T10:17:28.525Z,48.38
2022-12-18T10:20:13.378Z,47.83
2022-12-18T10:22:52.161Z,54.65
2022-12-18T10:25:24.663Z,48.55
2022-12-18T10:27:58.740Z,49.65
2022-12-18T10:30:26.813Z,50.75
2022-12-18T10:32:53.680Z,48.65
2022-12-18T10:35:26.278Z,49.60
2022-12-18T10:40:32.282Z,51.97
2022-12-18T10:43:16.002Z,49.92
2022-12-18T10:45:43.360Z,53.88
2022-12-18T10:48:23.466Z,51.38
2022-12-18T10:53:43.648Z,50.55
2022-12-18T10:56:10.945Z,49.95
2022-12-18T10:58:39.678Z,49.10
2022-12-18T11:01:15.365Z,54.38
2022-12-18T11:03:45.562Z,45.42
2022-12-18T11:06:16.882Z,53.15
2022-12-18T11:08:57.491Z,52.40
2022-12-18T11:11:25.449Z,51.35
2022-12-18T11:14:02.429Z,48.58
2022-12-18T11:16:32.020Z,48.58
2022-12-18T11:19:20.332Z,45.75
2022-12-18T11:21:48.050Z,45.97
2022-12-18T11:24:32.261Z,54.40
2022-12-18T11:27:02.584Z,49.40
2022-12-18T11:29:41.959Z,50.30
2022-12-18T11:32:16.381Z,54.42
2022-12-18T11:34:49.041Z,45.97
2022-12-18T11:39:53.141Z,50.92
2022-12-18T11:42:34.387Z,50.10
2022-12-18T11:45:04.857Z,53.55
2022-12-18T11:47:48.710Z,54.58
2022-12-18T11:50:51.837Z,58.00
2022-12-18T11:53:19.896Z,97.47
2022-12-18T11:56:01.675Z,59.55
2022-12-18T11:58:48.881Z,54.95
2022-12-18T12:01:45.683Z,51.65
2022-12-18T12:04:13.448Z,50.70
2022-12-18T12:07:00.053Z,55.17
2022-12-18T12:09:46.521Z,56.83
2022-12-18T12:12:31.910Z,55.05
2022-12-18T12:15:20.928Z,57.20
2022-12-18T12:18:16.492Z,52.53
2022-12-18T12:20:50.553Z,64.25
2022-12-18T12:23:35.854Z,60.70
2022-12-18T12:26:10.991Z,60.45
2022-12-18T12:29:20.825Z,54.72
2022-12-18T12:32:04.105Z,52.85
2022-12-18T12:37:28.254Z,62.75
2022-12-18T12:39:56.138Z,56.78
2022-12-18T12:43:09.127Z,59.78
2022-12-18T12:45:59.530Z,50.30
2022-12-18T12:48:49.774Z,56.03
2022-12-18T12:51:29.038Z,54.80
2022-12-18T12:53:58.305Z,56.30
2022-12-18T12:56:45.832Z,56.15
2022-12-18T12:59:23.669Z,62.25
2022-12-18T13:01:54.184Z,64.35
2022-12-18T13:04:48.342Z,59.95
2022-12-18T13:07:34.760Z,56.08
2022-12-18T13:10:23.781Z,59.13
2022-12-18T13:13:23.723Z,55.95
2022-12-18T13:16:07.448Z,62.97
2022-12-18T13:18:34.925Z,56.72
2022-12-18T13:21:03.711Z,54.40
2022-12-18T13:23:32.744Z,59.00
2022-12-18T13:26:28.116Z,55.58
2022-12-18T13:28:57.897Z,56.65
2022-12-18T13:31:31.090Z,59.33
2022-12-18T13:34:27.610Z,60.85
2022-12-18T13:36:56.511Z,60.40
2022-12-18T13:39:34.796Z,63.45
2022-12-18T13:42:06.015Z,54.13
2022-12-18T13:44:41.435Z,58.55
2022-12-18T13:47:38.940Z,58.75
2022-12-18T13:50:33.953Z,57.17
2022-12-18T13:53:05.873Z,65.63
2022-12-18T13:55:33.441Z,54.28
2022-12-18T13:58:07.318Z,58.88
2022-12-18T14:00:34.406Z,63.50
2022-12-18T14:03:01.598Z,58.17
2022-12-18T14:05:36.969Z,61.60
2022-12-18T14:08:16.171Z,62.60
2022-12-18T14:10:50.200Z,62.28
2022-12-18T14:13:25.342Z,63.20
2022-12-18T14:15:53.255Z,58.60
2022-12-18T14:18:26.124Z,66.43
2022-12-18T14:20:55.985Z,65.88
2022-12-18T14:23:39.648Z,68.13
2022-12-18T14:26:22.155Z,63.80
2022-12-18T14:31:25.662Z,68.72
2022-12-18T14:33:53.287Z,60.08
2022-12-18T14:36:30.347Z,63.28
2022-12-18T14:38:58.950Z,63.10
2022-12-18T14:41:27.040Z,71.03
2022-12-18T14:43:55.551Z,66.93
2022-12-18T14:46:46.767Z,61.92
2022-12-18T14:49:28.461Z,63.85
2022-12-18T14:52:03.710Z,69.25
2022-12-18T14:54:32.413Z,60.03
2022-12-18T14:57:07.008Z,66.53
2022-12-18T14:59:33.988Z,65.93
2022-12-18T15:02:22.962Z,62.10
2022-12-18T15:05:02.025Z,67.22
2022-12-18T15:07:40.271Z,66.00
2022-12-18T15:10:19.180Z,62.47
2022-12-18T15:12:49.849Z,70.45
2022-12-18T15:15:35.072Z,64.82
2022-12-18T15:18:13.746Z,65.47
2022-12-18T15:20:52.735Z,63.03
2022-12-18T15:23:24.225Z,69.88
2022-12-18T15:26:12.782Z,69.25
2022-12-18T15:28:46.559Z,69.28
2022-12-18T15:31:13.328Z,69.40
2022-12-18T15:33:47.013Z,64.60
2022-12-18T15:36:19.334Z,74.13
2022-12-18T15:38:55.191Z,71.72
2022-12-18T15:41:25.011Z,65.07
2022-12-18T15:43:53.688Z,69.85
2022-12-18T15:46:25.906Z,69.53
2022-12-18T15:48:59.749Z,68.70
2022-12-18T15:51:33.032Z,78.78
2022-12-18T15:54:02.852Z,66.45
2022-12-18T15:56:48.100Z,78.20
2022-12-18T15:59:19.997Z,70.28
2022-12-18T16:01:49.988Z,75.20
2022-12-18T16:04:21.451Z,71.10
2022-12-18T16:07:14.023Z,70.57
2022-12-18T16:09:36.535Z,82.55
2022-12-18T16:12:03.467Z,67.70
2022-12-18T16:14:31.719Z,66.80
2022-12-18T16:17:04.440Z,75.22
2022-12-18T16:19:31.622Z,73.63
2022-12-18T16:21:59.244Z,73.35
2022-12-18T16:24:28.482Z,72.18
2022-12-18T16:26:56.896Z,77.55
2022-12-18T16:29:28.705Z,76.25
2022-12-18T16:32:00.277Z,77.72
2022-12-18T16:34:35.299Z,75.50
2022-12-18T16:37:06.444Z,79.32
2022-12-18T16:39:35.367Z,77.88
2022-12-18T16:42:15.587Z,88.32
2022-12-18T16:44:42.876Z,74.30
2022-12-18T16:47:11.099Z,79.30
2022-12-18T16:49:41.192Z,85.38
2022-12-18T16:52:08.223Z,80.68
2022-12-18T16:54:36.603Z,83.07
2022-12-18T16:57:05.300Z,85.68
2022-12-18T16:59:35.395Z,79.32
2022-12-18T17:02:06.844Z,86.18
2022-12-18T17:04:34.206Z,79.90
2022-12-18T17:07:00.970Z,84.10
2022-12-18T17:09:27.758Z,82.93
2022-12-18T17:11:55.133Z,89.60
2022-12-18T17:14:27.089Z,81.85
2022-12-18T17:17:19.748Z,84.30
2022-12-18T17:19:42.279Z,86.93
2022-12-18T17:22:09.461Z,106.28
2022-12-18T17:24:36.368Z,86.90
2022-12-18T17:27:04.447Z,81.35
2022-12-18T17:29:31.439Z,82.95
2022-12-18T17:31:58.716Z,86.25
2022-12-18T17:34:27.814Z,81.85
2022-12-18T17:36:55.131Z,83.53
2022-12-18T17:39:22.056Z,103.88
2022-12-18T17:41:49.712Z,84.45
2022-12-18T17:44:17.000Z,89.55
2022-12-18T17:46:44.633Z,102.40
2022-12-18T17:49:11.908Z,84.10
2022-12-18T17:51:38.908Z,87.88
2022-12-18T17:54:05.853Z,95.30
2022-12-18T17:56:33.079Z,94.65
2022-12-18T17:59:00.194Z,85.32
2022-12-18T18:01:27.499Z,95.93
2022-12-18T18:04:00.180Z,92.78
2022-12-18T18:06:27.588Z,91.95
2022-12-18T18:08:54.740Z,91.93
2022-12-18T18:11:41.888Z,98.78
2022-12-18T18:14:18.035Z,94.38
2022-12-18T18:16:50.372Z,90.22
2022-12-18T18:19:20.140Z,92.55
2022-12-18T18:21:49.702Z,90.72
2022-12-18T18:24:20.018Z,97.65
2022-12-18T18:26:47.285Z,96.57
2022-12-18T18:29:17.415Z,87.07
2022-12-18T18:31:44.455Z,110.35
2022-12-18T18:34:16.693Z,93.47
2022-12-18T18:36:43.872Z,96.47
2022-12-18T18:39:10.656Z,126.10
2022-12-18T18:41:37.641Z,87.85
2022-12-18T18:44:04.825Z,116.88
2022-12-18T18:46:31.652Z,97.07
2022-12-18T18:48:58.530Z,92.90
2022-12-18T18:51:27.795Z,102.72
2022-12-18T18:53:58.369Z,87.95
2022-12-18T18:59:16.913Z,97.07
2022-12-18T19:01:44.208Z,87.95
2022-12-18T19:04:11.151Z,89.82
2022-12-18T19:06:38.050Z,86.75
2022-12-18T19:09:06.601Z,99.38
2022-12-18T19:11:52.136Z,88.57
2022-12-18T19:14:18.997Z,94.32
2022-12-18T19:16:45.945Z,100.55
2022-12-18T19:19:13.299Z,91.05
2022-12-18T19:21:40.808Z,95.30
2022-12-18T19:24:07.915Z,92.82
2022-12-18T19:26:37.534Z,88.75
2022-12-18T19:29:06.659Z,94.80
2022-12-18T19:31:36.399Z,94.65
2022-12-18T19:34:06.820Z,105.18
2022-12-18T19:36:35.837Z,91.45
2022-12-18T19:39:11.251Z,87.15
2022-12-18T19:41:38.453Z,87.47
2022-12-18T19:44:08.054Z,89.63
2022-12-18T19:46:38.283Z,92.35
2022-12-18T19:49:09.895Z,88.05
2022-12-18T19:51:36.898Z,96.30
2022-12-18T19:54:03.757Z,94.05
2022-12-18T19:56:33.606Z,90.88
2022-12-18T19:59:00.858Z,95.72
2022-12-18T20:01:29.700Z,92.22
2022-12-18T20:03:58.329Z,89.25
2022-12-18T20:06:33.326Z,96.03
2022-12-18T20:09:03.317Z,97.90
2022-12-18T20:11:31.109Z,93.10
2022-12-18T20:14:01.870Z,91.22
2022-12-18T20:16:29.061Z,88.88
2022-12-18T20:18:56.528Z,90.35
2022-12-18T20:21:23.794Z,95.93
2022-12-18T20:23:50.999Z,88.95
2022-12-18T20:26:17.791Z,93.25
2022-12-18T20:28:44.617Z,89.45
2022-12-18T20:31:13.803Z,86.93
2022-12-18T20:33:42.011Z,92.60
2022-12-18T20:36:16.402Z,93.85
2022-12-18T20:38:48.370Z,90.85
2022-12-18T20:41:19.316Z,99.63
2022-12-18T20:43:46.463Z,89.43
2022-12-18T20:46:16.330Z,91.97
2022-12-18T20:48:44.779Z,87.90
2022-12-18T20:51:14.872Z,85.32
2022-12-18T20:53:42.576Z,84.45
2022-12-18T20:56:21.829Z,93.95
2022-12-18T20:58:50.407Z,91.25
2022-12-18T21:01:21.152Z,90.78
2022-12-18T21:03:48.926Z,83.35
2022-12-18T21:06:18.213Z,85.07
2022-12-18T21:08:45.365Z,82.40
2022-12-18T21:11:35.643Z,89.32
2022-12-18T21:14:08.775Z,87.80
2022-12-18T21:16:35.892Z,90.95
2022-12-18T21:19:02.764Z,86.18
2022-12-18T21:21:29.820Z,86.07
2022-12-18T21:24:01.212Z,91.95
2022-12-18T21:26:31.093Z,93.10
2022-12-18T21:29:01.269Z,95.35
2022-12-18T21:31:31.825Z,89.60
2022-12-18T21:34:02.426Z,88.65
2022-12-18T21:36:30.232Z,96.25
2022-12-18T21:38:58.324Z,97.05
2022-12-18T21:41:45.720Z,90.35
2022-12-18T21:44:15.100Z,88.32
2022-12-18T21:46:44.196Z,96.57
2022-12-18T21:49:14.402Z,88.28
2022-12-18T21:51:41.586Z,97.78
2022-12-18T21:54:08.561Z,91.43
2022-12-18T21:56:48.783Z,96.05
2022-12-18T21:59:18.226Z,92.70
2022-12-18T22:01:45.625Z,103.55
2022-12-18T22:04:13.075Z,98.53
2022-12-18T22:06:42.369Z,95.25
2022-12-18T22:09:10.917Z,105.60
2022-12-18T22:11:37.718Z,104.93
2022-12-18T22:14:04.813Z,105.57
2022-12-18T22:16:31.577Z,108.03
2022-12-18T22:18:58.608Z,102.80
2022-12-18T22:21:31.105Z,106.82
2022-12-18T22:24:10.685Z,99.65
2022-12-18T22:26:40.163Z,105.93
2022-12-18T22:29:26.865Z,104.43
2022-12-18T22:31:53.623Z,96.57
2022-12-18T22:34:23.018Z,99.40
2022-12-18T22:36:50.731Z,105.18
2022-12-18T22:39:20.613Z,105.20
2022-12-18T22:41:48.175Z,100.35
2022-12-18T22:44:15.720Z,91.93
2022-12-18T22:47:06.536Z,94.28
2022-12-18T22:49:35.362Z,100.88
2022-12-18T22:52:04.175Z,103.88
2022-12-18T22:54:31.550Z,99.63
2022-12-18T22:56:58.543Z,105.68
2022-12-18T22:59:25.429Z,92.38
2022-12-18T23:01:56.896Z,106.63
2022-12-18T23:04:36.183Z,97.13
2022-12-18T23:07:05.725Z,97.78
2022-12-18T23:09:33.339Z,101.82
2022-12-18T23:12:00.119Z,94.95
2022-12-18T23:14:27.874Z,97.18
2022-12-18T23:16:54.773Z,95.93
2022-12-18T23:19:22.677Z,89.25
2022-12-18T23:21:50.412Z,88.43
2022-12-18T23:24:17.232Z,93.45
2022-12-18T23:26:44.135Z,90.72
2022-12-18T23:29:10.939Z,93.85
2022-12-18T23:31:39.283Z,89.95
2022-12-18T23:34:07.152Z,89.75
2022-12-18T23:36:38.430Z,89.72
2022-12-18T23:39:27.549Z,93.07
2022-12-18T23:41:58.041Z,100.82
2022-12-18T23:44:25.209Z,90.22
2022-12-18T23:46:51.982Z,93.47
2022-12-18T23:49:18.928Z,101.47
2022-12-18T23:51:45.714Z,89.72
2022-12-18T23:54:12.400Z,102.45
2022-12-18T23:56:39.200Z,96.93
2022-12-18T23:59:05.968Z,93.28
